sensor_id;sensor_type;location;lat;lon;timestamp;pressure;altitude;pressure_sealevel;temperature;humidity
2036;BME280;23642;42.658;23.350;2023-05-18T00:01:45;38243.03;;;-146.31;100.00
2036;BME280;23642;42.658;23.350;2023-05-18T00:04:12;38117.69;;;-146.31;100.00
2036;BME280;23642;42.658;23.350;2023-05-18T00:06:43;38047.81;;;-146.31;100.00
2036;BME280;23642;42.658;23.350;2023-05-18T00:09:10;38031.38;;;-146.31;100.00
2036;BME280;23642;42.658;23.350;2023-05-18T00:11:40;38012.88;;;-146.31;100.00
2036;BME280;23642;42.658;23.350;2023-05-18T00:14:06;37988.22;;;-146.31;100.00
2036;BME280;23642;42.658;23.350;2023-05-18T00:16:35;37936.84;;;-146.31;100.00
2036;BME280;23642;42.658;23.350;2023-05-18T00:19:02;37867.00;;;-146.31;100.00
2036;BME280;23642;42.658;23.350;2023-05-18T00:21:32;37840.28;;;-146.31;100.00
2036;BME280;23642;42.658;23.350;2023-05-18T00:24:04;37940.97;;;-146.31;100.00
2036;BME280;23642;42.658;23.350;2023-05-18T00:26:31;38090.97;;;-146.31;100.00
2036;BME280;23642;42.658;23.350;2023-05-18T00:28:58;38243.03;;;-146.31;100.00
2036;BME280;23642;42.658;23.350;2023-05-18T00:31:25;38413.59;;;-146.31;100.00
2036;BME280;23642;42.658;23.350;2023-05-18T00:33:57;38623.22;;;-146.31;100.00
2036;BME280;23642;42.658;23.350;2023-05-18T00:36:24;38748.59;;;-146.31;100.00
2036;BME280;23642;42.658;23.350;2023-05-18T00:38:51;38812.28;;;-146.31;100.00
2036;BME280;23642;42.658;23.350;2023-05-18T00:41:18;38984.94;;;-146.31;100.00
2036;BME280;23642;42.658;23.350;2023-05-18T00:43:47;39165.81;;;-146.31;100.00
2036;BME280;23642;42.658;23.350;2023-05-18T00:46:14;39213.09;;;-146.31;100.00
2036;BME280;23642;42.658;23.350;2023-05-18T00:48:45;39371.38;;;-146.31;100.00
2036;BME280;23642;42.658;23.350;2023-05-18T00:51:19;39418.66;;;-146.31;100.00
2036;BME280;23642;42.658;23.350;2023-05-18T00:53:48;39585.16;;;-146.31;100.00
2036;BME280;23642;42.658;23.350;2023-05-18T00:56:15;39718.81;;;-146.31;100.00
2036;BME280;23642;42.658;23.350;2023-05-18T00:58:42;39798.97;;;-146.31;100.00
2036;BME280;23642;42.658;23.350;2023-05-18T01:01:10;39910.00;;;-146.31;100.00
2036;BME280;23642;42.658;23.350;2023-05-18T01:03:38;39924.38;;;-146.31;100.00
2036;BME280;23642;42.658;23.350;2023-05-18T01:06:08;39844.22;;;-146.31;100.00
2036;BME280;23642;42.658;23.350;2023-05-18T01:08:38;39844.22;;;-146.31;100.00
2036;BME280;23642;42.658;23.350;2023-05-18T01:11:18;39807.19;;;-146.31;100.00
2036;BME280;23642;42.658;23.350;2023-05-18T01:13:54;39912.06;;;-146.31;100.00
2036;BME280;23642;42.658;23.350;2023-05-18T01:16:28;40043.63;;;-146.31;100.00
2036;BME280;23642;42.658;23.350;2023-05-18T01:19:27;40234.84;;;-146.31;100.00
2036;BME280;23642;42.658;23.350;2023-05-18T01:22:16;40310.94;;;-146.31;100.00
2036;BME280;23642;42.658;23.350;2023-05-18T01:24:57;40341.78;;;-146.31;100.00
2036;BME280;23642;42.658;23.350;2023-05-18T01:27:30;40387.00;;;-146.31;100.00
2036;BME280;23642;42.658;23.350;2023-05-18T01:30:04;40419.91;;;-146.31;100.00
2036;BME280;23642;42.658;23.350;2023-05-18T01:32:38;40292.44;;;-146.31;100.00
2036;BME280;23642;42.658;23.350;2023-05-18T01:35:07;40068.31;;;-146.31;100.00
2036;BME280;23642;42.658;23.350;2023-05-18T01:37:34;39885.31;;;-146.31;100.00
2036;BME280;23642;42.658;23.350;2023-05-18T01:40:08;39704.41;;;-146.31;100.00
2036;BME280;23642;42.658;23.350;2023-05-18T01:42:45;39535.84;;;-146.31;100.00
2036;BME280;23642;42.658;23.350;2023-05-18T01:45:21;39313.81;;;-146.31;100.00
2036;BME280;23642;42.658;23.350;2023-05-18T01:47:56;39309.72;;;-146.31;100.00
2036;BME280;23642;42.658;23.350;2023-05-18T01:50:30;39217.22;;;-146.31;100.00
2036;BME280;23642;42.658;23.350;2023-05-18T01:53:10;39026.06;;;-146.31;100.00
2036;BME280;23642;42.658;23.350;2023-05-18T01:55:41;38793.81;;;-146.31;100.00
2036;BME280;23642;42.658;23.350;2023-05-18T01:58:12;38567.72;;;-146.31;100.00
2036;BME280;23642;42.658;23.350;2023-05-18T02:00:40;38421.81;;;-146.31;100.00
2036;BME280;23642;42.658;23.350;2023-05-18T02:03:07;38341.66;;;-146.31;100.00
2036;BME280;23642;42.658;23.350;2023-05-18T02:05:34;38319.06;;;-146.31;100.00
2036;BME280;23642;42.658;23.350;2023-05-18T02:08:02;38265.63;;;-146.31;100.00
2036;BME280;23642;42.658;23.350;2023-05-18T02:10:31;38253.31;;;-146.31;100.00
2036;BME280;23642;42.658;23.350;2023-05-18T02:13:00;38220.44;;;-146.31;100.00
2036;BME280;23642;42.658;23.350;2023-05-18T02:15:29;38354.00;;;-146.31;100.00
2036;BME280;23642;42.658;23.350;2023-05-18T02:17:56;38518.41;;;-146.31;100.00
2036;BME280;23642;42.658;23.350;2023-05-18T02:20:23;38680.75;;;-146.31;100.00
2036;BME280;23642;42.658;23.350;2023-05-18T02:23:11;38824.63;;;-146.31;100.00
2036;BME280;23642;42.658;23.350;2023-05-18T02:25:40;38987.00;;;-146.31;100.00
2036;BME280;23642;42.658;23.350;2023-05-18T02:28:09;39147.31;;;-146.31;100.00
2036;BME280;23642;42.658;23.350;2023-05-18T02:30:37;39213.09;;;-146.31;100.00
2036;BME280;23642;42.658;23.350;2023-05-18T02:33:04;39311.78;;;-146.31;100.00
2036;BME280;23642;42.658;23.350;2023-05-18T02:35:33;39396.03;;;-146.31;100.00
2036;BME280;23642;42.658;23.350;2023-05-18T02:38:00;39472.09;;;-146.31;100.00
2036;BME280;23642;42.658;23.350;2023-05-18T02:40:28;39550.22;;;-146.31;100.00
2036;BME280;23642;42.658;23.350;2023-05-18T02:42:55;39613.94;;;-146.31;100.00
2036;BME280;23642;42.658;23.350;2023-05-18T02:45:22;39609.84;;;-146.31;100.00
2036;BME280;23642;42.658;23.350;2023-05-18T02:47:51;39474.16;;;-146.31;100.00
2036;BME280;23642;42.658;23.350;2023-05-18T02:50:17;39379.59;;;-146.31;100.00
2036;BME280;23642;42.658;23.350;2023-05-18T02:52:44;39326.16;;;-146.31;100.00
2036;BME280;23642;42.658;23.350;2023-05-18T02:55:13;39186.38;;;-146.31;100.00
2036;BME280;23642;42.658;23.350;2023-05-18T02:57:41;39071.28;;;-146.31;100.00
2036;BME280;23642;42.658;23.350;2023-05-18T03:00:12;39007.56;;;-146.31;100.00
2036;BME280;23642;42.658;23.350;2023-05-18T03:02:41;39013.72;;;-146.31;100.00
2036;BME280;23642;42.658;23.350;2023-05-18T03:05:10;38989.06;;;-146.31;100.00
2036;BME280;23642;42.658;23.350;2023-05-18T03:07:37;38941.78;;;-146.31;100.00
2036;BME280;23642;42.658;23.350;2023-05-18T03:10:04;38960.28;;;-146.31;100.00
2036;BME280;23642;42.658;23.350;2023-05-18T03:12:33;38894.50;;;-146.31;100.00
2036;BME280;23642;42.658;23.350;2023-05-18T03:15:00;38888.34;;;-146.31;100.00
2036;BME280;23642;42.658;23.350;2023-05-18T03:17:27;38989.06;;;-146.31;100.00
2036;BME280;23642;42.658;23.350;2023-05-18T03:19:54;39110.31;;;-146.31;100.00
2036;BME280;23642;42.658;23.350;2023-05-18T03:22:26;39246.00;;;-146.31;100.00
2036;BME280;23642;42.658;23.350;2023-05-18T03:24:54;39204.88;;;-146.31;100.00
2036;BME280;23642;42.658;23.350;2023-05-18T03:27:27;39211.03;;;-146.31;100.00
2036;BME280;23642;42.658;23.350;2023-05-18T03:29:54;39215.16;;;-146.31;100.00
2036;BME280;23642;42.658;23.350;2023-05-18T03:32:21;39180.22;;;-146.31;100.00
2036;BME280;23642;42.658;23.350;2023-05-18T03:34:51;39188.44;;;-146.31;100.00
2036;BME280;23642;42.658;23.350;2023-05-18T03:37:18;39194.59;;;-146.31;100.00
2036;BME280;23642;42.658;23.350;2023-05-18T03:39:47;39190.50;;;-146.31;100.00
2036;BME280;23642;42.658;23.350;2023-05-18T03:42:21;39149.38;;;-146.31;100.00
2036;BME280;23642;42.658;23.350;2023-05-18T03:44:50;39206.94;;;-146.31;100.00
2036;BME280;23642;42.658;23.350;2023-05-18T03:47:16;39188.44;;;-146.31;100.00
2036;BME280;23642;42.658;23.350;2023-05-18T03:49:45;39194.59;;;-146.31;100.00
2036;BME280;23642;42.658;23.350;2023-05-18T03:52:15;39196.66;;;-146.31;100.00
2036;BME280;23642;42.658;23.350;2023-05-18T03:54:56;39301.50;;;-146.31;100.00
2036;BME280;23642;42.658;23.350;2023-05-18T03:57:23;39365.22;;;-146.31;100.00
2036;BME280;23642;42.658;23.350;2023-05-18T03:59:50;39447.44;;;-146.31;100.00
2036;BME280;23642;42.658;23.350;2023-05-18T04:02:22;39455.66;;;-146.31;100.00
2036;BME280;23642;42.658;23.350;2023-05-18T04:04:49;39435.09;;;-146.31;100.00
2036;BME280;23642;42.658;23.350;2023-05-18T04:07:19;39498.84;;;-146.31;100.00
2036;BME280;23642;42.658;23.350;2023-05-18T04:09:50;39640.69;;;-146.31;100.00
2036;BME280;23642;42.658;23.350;2023-05-18T04:12:17;39737.31;;;-146.31;100.00
2036;BME280;23642;42.658;23.350;2023-05-18T04:14:44;39714.69;;;-146.31;100.00
2036;BME280;23642;42.658;23.350;2023-05-18T04:17:15;39852.44;;;-146.31;100.00
2036;BME280;23642;42.658;23.350;2023-05-18T04:19:42;40010.75;;;-146.31;100.00
2036;BME280;23642;42.658;23.350;2023-05-18T04:22:10;40115.59;;;-146.31;100.00
2036;BME280;23642;42.658;23.350;2023-05-18T04:24:40;40150.56;;;-146.31;100.00
2036;BME280;23642;42.658;23.350;2023-05-18T04:27:08;40294.47;;;-146.31;100.00
2036;BME280;23642;42.658;23.350;2023-05-18T04:29:36;40438.41;;;-146.31;100.00
2036;BME280;23642;42.658;23.350;2023-05-18T04:32:05;40508.34;;;-146.31;100.00
2036;BME280;23642;42.658;23.350;2023-05-18T04:34:33;40506.28;;;-146.31;100.00
2036;BME280;23642;42.658;23.350;2023-05-18T04:37:09;40574.13;;;-146.31;100.00
2036;BME280;23642;42.658;23.350;2023-05-18T04:39:37;40837.38;;;-146.31;100.00
2036;BME280;23642;42.658;23.350;2023-05-18T04:42:10;41110.88;;;-146.31;100.00
2036;BME280;23642;42.658;23.350;2023-05-18T04:44:42;41347.41;;;-146.31;100.00
2036;BME280;23642;42.658;23.350;2023-05-18T04:47:09;41460.53;;;-146.31;100.00
2036;BME280;23642;42.658;23.350;2023-05-18T04:49:36;41692.97;;;-146.31;100.00
2036;BME280;23642;42.658;23.350;2023-05-18T04:52:04;41964.53;;;-146.31;100.00
2036;BME280;23642;42.658;23.350;2023-05-18T04:54:33;42137.34;;;-146.31;100.00
2036;BME280;23642;42.658;23.350;2023-05-18T04:57:01;42406.84;;;-146.31;100.00
2036;BME280;23642;42.658;23.350;2023-05-18T04:59:30;42559.13;;;-146.31;100.00
2036;BME280;23642;42.658;23.350;2023-05-18T05:02:04;42750.47;;;-146.31;100.00
2036;BME280;23642;42.658;23.350;2023-05-18T05:04:34;42736.06;;;-146.31;100.00
2036;BME280;23642;42.658;23.350;2023-05-18T05:07:01;42867.75;;;-146.31;100.00
2036;BME280;23642;42.658;23.350;2023-05-18T05:09:34;42857.47;;;-146.31;100.00
2036;BME280;23642;42.658;23.350;2023-05-18T05:12:10;43081.78;;;-146.31;100.00
2036;BME280;23642;42.658;23.350;2023-05-18T05:14:45;43159.97;;;-146.31;100.00
2036;BME280;23642;42.658;23.350;2023-05-18T05:17:13;43320.50;;;-146.31;100.00
2036;BME280;23642;42.658;23.350;2023-05-18T05:19:40;43359.59;;;-146.31;100.00
2036;BME280;23642;42.658;23.350;2023-05-18T05:22:08;43629.22;;;-146.31;100.00
2036;BME280;23642;42.658;23.350;2023-05-18T05:24:39;43528.38;;;-146.31;100.00
2036;BME280;23642;42.658;23.350;2023-05-18T05:27:14;43448.09;;;-146.31;100.00
2036;BME280;23642;42.658;23.350;2023-05-18T05:29:55;43520.13;;;-146.31;100.00
2036;BME280;23642;42.658;23.350;2023-05-18T05:32:22;43382.25;;;-146.31;100.00
2036;BME280;23642;42.658;23.350;2023-05-18T05:34:49;43404.88;;;-146.31;100.00
2036;BME280;23642;42.658;23.350;2023-05-18T05:37:16;43476.91;;;-146.31;100.00
2036;BME280;23642;42.658;23.350;2023-05-18T05:39:50;43384.31;;;-146.31;100.00
2036;BME280;23642;42.658;23.350;2023-05-18T05:42:34;43229.94;;;-146.31;100.00
2036;BME280;23642;42.658;23.350;2023-05-18T05:45:05;43180.56;;;-146.31;100.00
2036;BME280;23642;42.658;23.350;2023-05-18T05:47:41;43044.75;;;-146.31;100.00
2036;BME280;23642;42.658;23.350;2023-05-18T05:51:22;42853.38;;;-146.31;100.00
2036;BME280;23642;42.658;23.350;2023-05-18T05:53:42;42785.47;;;-146.31;100.00
2036;BME280;23642;42.658;23.350;2023-05-18T05:56:15;42834.84;;;-146.31;100.00
2036;BME280;23642;42.658;23.350;2023-05-18T05:58:44;42775.16;;;-146.31;100.00
2036;BME280;23642;42.658;23.350;2023-05-18T06:01:12;42760.75;;;-146.31;100.00
2036;BME280;23642;42.658;23.350;2023-05-18T06:03:41;42826.59;;;-146.31;100.00
2036;BME280;23642;42.658;23.350;2023-05-18T06:06:09;42629.06;;;-146.31;100.00
2036;BME280;23642;42.658;23.350;2023-05-18T06:08:59;42478.88;;;-146.31;100.00
2036;BME280;23642;42.658;23.350;2023-05-18T06:11:30;42378.06;;;-146.31;100.00
2036;BME280;23642;42.658;23.350;2023-05-18T06:14:00;42308.09;;;-146.31;100.00
2036;BME280;23642;42.658;23.350;2023-05-18T06:16:33;42075.63;;;-146.31;100.00
2036;BME280;23642;42.658;23.350;2023-05-18T06:19:10;41830.81;;;-146.31;100.00
2036;BME280;23642;42.658;23.350;2023-05-18T06:21:46;41954.25;;;-146.31;100.00
2036;BME280;23642;42.658;23.350;2023-05-18T06:24:49;41797.91;;;-146.31;100.00
2036;BME280;23642;42.658;23.350;2023-05-18T06:27:57;41666.25;;;-146.31;100.00
2036;BME280;23642;42.658;23.350;2023-05-18T06:30:31;41614.81;;;-146.31;100.00
2036;BME280;23642;42.658;23.350;2023-05-18T06:33:11;41658.00;;;-146.31;100.00
2036;BME280;23642;42.658;23.350;2023-05-18T06:35:57;41509.91;;;-146.31;100.00
2036;BME280;23642;42.658;23.350;2023-05-18T06:38:29;41686.81;;;-146.31;100.00
2036;BME280;23642;42.658;23.350;2023-05-18T06:41:06;41730.00;;;-146.31;100.00
2036;BME280;23642;42.658;23.350;2023-05-18T06:43:56;41970.69;;;-146.31;100.00
2036;BME280;23642;42.658;23.350;2023-05-18T06:46:43;42289.59;;;-146.31;100.00
2036;BME280;23642;42.658;23.350;2023-05-18T06:49:27;42635.25;;;-146.31;100.00
2036;BME280;23642;42.658;23.350;2023-05-18T06:52:11;43287.56;;;-146.31;100.00
2036;BME280;23642;42.658;23.350;2023-05-18T06:54:41;43693.03;;;-146.31;100.00
2036;BME280;23642;42.658;23.350;2023-05-18T06:57:56;44007.97;;;-146.31;100.00
2036;BME280;23642;42.658;23.350;2023-05-18T07:04:23;44530.84;;;-146.31;100.00
2036;BME280;23642;42.658;23.350;2023-05-18T07:07:08;44790.28;;;-146.31;100.00
2036;BME280;23642;42.658;23.350;2023-05-18T07:13:16;44722.31;;;-146.31;100.00
2036;BME280;23642;42.658;23.350;2023-05-18T07:15:51;44569.97;;;-146.31;100.00
2036;BME280;23642;42.658;23.350;2023-05-18T07:18:21;44448.50;;;-146.31;100.00
2036;BME280;23642;42.658;23.350;2023-05-18T07:20:58;44407.31;;;-146.31;100.00
2036;BME280;23642;42.658;23.350;2023-05-18T07:26:06;44427.91;;;-146.31;100.00
2036;BME280;23642;42.658;23.350;2023-05-18T07:28:45;44289.97;;;-146.31;100.00
2036;BME280;23642;42.658;23.350;2023-05-18T07:31:13;44526.72;;;-146.31;100.00
2036;BME280;23642;42.658;23.350;2023-05-18T07:34:14;44819.09;;;-146.31;100.00
2036;BME280;23642;42.658;23.350;2023-05-18T07:37:28;46052.63;;;-146.31;99.85
2036;BME280;23642;42.658;23.350;2023-05-18T07:40:38;46734.47;;;-146.31;97.29
2036;BME280;23642;42.658;23.350;2023-05-18T07:43:42;47016.72;;;-146.31;97.19
2036;BME280;23642;42.658;23.350;2023-05-18T07:46:33;47329.91;;;-146.31;96.12
2036;BME280;23642;42.658;23.350;2023-05-18T07:49:41;47406.13;;;-146.31;96.16
2036;BME280;23642;42.658;23.350;2023-05-18T07:52:31;47521.53;;;-146.31;97.00
2036;BME280;23642;42.658;23.350;2023-05-18T07:55:47;47521.53;;;-146.31;97.45
2036;BME280;23642;42.658;23.350;2023-05-18T08:11:22;48203.66;;;-146.31;92.46
2036;BME280;23642;42.658;23.350;2023-05-18T08:14:28;48397.41;;;-146.31;91.53
2036;BME280;23642;42.658;23.350;2023-05-18T08:17:23;48354.13;;;-146.31;93.46
2036;BME280;23642;42.658;23.350;2023-05-18T08:20:46;48232.50;;;-146.31;94.71
2036;BME280;23642;42.658;23.350;2023-05-18T08:23:55;48279.91;;;-146.31;94.12
2036;BME280;23642;42.658;23.350;2023-05-18T08:27:48;48253.13;;;-146.31;94.96
2036;BME280;23642;42.658;23.350;2023-05-18T08:36:22;48203.66;;;-146.31;96.64
2036;BME280;23642;42.658;23.350;2023-05-18T08:39:30;48106.78;;;-146.31;97.34
2036;BME280;23642;42.658;23.350;2023-05-18T09:02:06;48473.66;;;-146.31;93.41
2036;BME280;23642;42.658;23.350;2023-05-18T09:04:57;48428.31;;;-146.31;94.70
2036;BME280;23642;42.658;23.350;2023-05-18T09:28:10;48430.38;;;-146.31;94.89
2036;BME280;23642;42.658;23.350;2023-05-18T09:30:47;48572.59;;;-146.31;93.15
2036;BME280;23642;42.658;23.350;2023-05-18T09:33:57;48514.88;;;-146.31;94.81
2036;BME280;23642;42.658;23.350;2023-05-18T09:37:34;48475.72;;;-146.31;95.71
2036;BME280;23642;42.658;23.350;2023-05-18T09:40:09;48486.03;;;-146.31;94.86
2036;BME280;23642;42.658;23.350;2023-05-18T09:43:36;48570.53;;;-146.31;94.45
2036;BME280;23642;42.658;23.350;2023-05-18T09:47:04;48523.13;;;-146.31;95.02
2036;BME280;23642;42.658;23.350;2023-05-18T10:00:21;48725.13;;;-146.31;92.49
2036;BME280;23642;42.658;23.350;2023-05-18T10:03:23;48729.25;;;-146.31;92.68
2036;BME280;23642;42.658;23.350;2023-05-18T10:05:59;48764.31;;;-146.31;92.88
2036;BME280;23642;42.658;23.350;2023-05-18T10:08:51;48741.63;;;-146.31;93.09
2036;BME280;23642;42.658;23.350;2023-05-18T10:14:06;48797.28;;;-146.31;92.33
2036;BME280;23642;42.658;23.350;2023-05-18T10:15:15;48811.72;;;-146.31;92.03
2036;BME280;23642;42.658;23.350;2023-05-18T10:17:54;48772.56;;;-146.31;92.65
2036;BME280;23642;42.658;23.350;2023-05-18T10:20:35;48840.56;;;-146.31;91.46
2036;BME280;23642;42.658;23.350;2023-05-18T10:23:34;48896.25;;;-146.31;90.25
2036;BME280;23642;42.658;23.350;2023-05-18T10:26:38;48960.16;;;-146.31;89.53
2036;BME280;23642;42.658;23.350;2023-05-18T10:29:23;48993.13;;;-146.31;89.51
2036;BME280;23642;42.658;23.350;2023-05-18T10:35:38;49065.28;;;-146.31;89.44
2036;BME280;23642;42.658;23.350;2023-05-18T10:38:25;49081.78;;;-146.31;88.85
2036;BME280;23642;42.658;23.350;2023-05-18T10:41:34;49127.13;;;-146.31;88.22
2036;BME280;23642;42.658;23.350;2023-05-18T10:44:56;49166.28;;;-146.31;88.37
2036;BME280;23642;42.658;23.350;2023-05-18T10:48:13;49118.88;;;-146.31;88.18
2036;BME280;23642;42.658;23.350;2023-05-18T10:51:25;49191.03;;;-146.31;88.67
2036;BME280;23642;42.658;23.350;2023-05-18T10:57:29;49149.81;;;-146.31;89.07
2036;BME280;23642;42.658;23.350;2023-05-18T11:11:01;49024.06;;;-146.31;91.39
2036;BME280;23642;42.658;23.350;2023-05-18T11:17:25;48832.34;;;-146.31;95.44
2036;BME280;23642;42.658;23.350;2023-05-18T11:22:13;48813.78;;;-146.31;95.79
2036;BME280;23642;42.658;23.350;2023-05-18T11:24:35;48756.06;;;-146.31;97.06
2036;BME280;23642;42.658;23.350;2023-05-18T11:28:27;48663.31;;;-146.31;98.35
2036;BME280;23642;42.658;23.350;2023-05-18T11:42:30;48661.25;;;-146.31;98.58
2036;BME280;23642;42.658;23.350;2023-05-18T12:40:24;48457.19;;;-146.31;100.00
2036;BME280;23642;42.658;23.350;2023-05-18T12:49:33;48543.75;;;-146.31;100.00
2036;BME280;23642;42.658;23.350;2023-05-18T12:52:33;48413.91;;;-146.31;100.00
2036;BME280;23642;42.658;23.350;2023-05-18T12:55:23;48430.38;;;-146.31;100.00
2036;BME280;23642;42.658;23.350;2023-05-18T12:58:21;48267.56;;;-146.31;100.00
2036;BME280;23642;42.658;23.350;2023-05-18T13:04:31;48382.97;;;-146.31;100.00
2036;BME280;23642;42.658;23.350;2023-05-18T13:27:07;48539.63;;;-146.31;99.31
2036;BME280;23642;42.658;23.350;2023-05-18T13:29:36;48364.44;;;-146.31;100.00
2036;BME280;23642;42.658;23.350;2023-05-18T13:32:57;48298.47;;;-146.31;100.00
2036;BME280;23642;42.658;23.350;2023-05-18T13:35:25;48251.06;;;-146.31;100.00
2036;BME280;23642;42.658;23.350;2023-05-18T13:38:12;48238.69;;;-146.31;100.00
2036;BME280;23642;42.658;23.350;2023-05-18T13:41:01;48230.44;;;-146.31;100.00
2036;BME280;23642;42.658;23.350;2023-05-18T13:43:31;48420.06;;;-146.31;99.10
2036;BME280;23642;42.658;23.350;2023-05-18T13:47:09;48411.84;;;-146.31;98.85
2036;BME280;23642;42.658;23.350;2023-05-18T14:05:59;48737.50;;;-146.31;95.52
2036;BME280;23642;42.658;23.350;2023-05-18T14:15:11;48527.25;;;-146.31;97.80
2036;BME280;23642;42.658;23.350;2023-05-18T14:30:18;48679.78;;;-146.31;97.17
2036;BME280;23642;42.658;23.350;2023-05-18T14:43:06;48718.97;;;-146.31;95.99
2036;BME280;23642;42.658;23.350;2023-05-18T14:49:00;48733.38;;;-146.31;95.88
2036;BME280;23642;42.658;23.350;2023-05-18T14:51:28;48737.50;;;-146.31;95.99
2036;BME280;23642;42.658;23.350;2023-05-18T14:54:48;48756.06;;;-146.31;95.81
2036;BME280;23642;42.658;23.350;2023-05-18T14:57:04;48739.56;;;-146.31;95.99
2036;BME280;23642;42.658;23.350;2023-05-18T15:00:05;48762.25;;;-146.31;95.01
2036;BME280;23642;42.658;23.350;2023-05-18T15:02:53;48733.38;;;-146.31;94.64
2036;BME280;23642;42.658;23.350;2023-05-18T15:08:41;48754.00;;;-146.31;94.36
2036;BME280;23642;42.658;23.350;2023-05-18T15:11:50;48780.78;;;-146.31;93.90
2036;BME280;23642;42.658;23.350;2023-05-18T15:20:59;48758.13;;;-146.31;97.36
2036;BME280;23642;42.658;23.350;2023-05-18T15:23:39;48721.03;;;-146.31;97.87
2036;BME280;23642;42.658;23.350;2023-05-18T15:26:50;48688.03;;;-146.31;98.79
2036;BME280;23642;42.658;23.350;2023-05-18T15:29:36;48704.53;;;-146.31;98.56
2036;BME280;23642;42.658;23.350;2023-05-18T15:32:15;48776.69;;;-146.31;97.26
2036;BME280;23642;42.658;23.350;2023-05-18T15:34:56;48819.97;;;-146.31;97.66
2036;BME280;23642;42.658;23.350;2023-05-18T15:37:56;48756.06;;;-146.31;98.95
2036;BME280;23642;42.658;23.350;2023-05-18T15:40:26;48729.25;;;-146.31;98.63
2036;BME280;23642;42.658;23.350;2023-05-18T15:42:58;48848.81;;;-146.31;95.91
2036;BME280;23642;42.658;23.350;2023-05-18T15:45:28;48832.34;;;-146.31;97.73
2036;BME280;23642;42.658;23.350;2023-05-18T15:47:57;48826.16;;;-146.31;96.97
2036;BME280;23642;42.658;23.350;2023-05-18T15:50:24;48896.25;;;-146.31;95.86
2036;BME280;23642;42.658;23.350;2023-05-18T15:52:59;48877.69;;;-146.31;96.46
2036;BME280;23642;42.658;23.350;2023-05-18T15:55:31;48918.91;;;-146.31;96.14
2036;BME280;23642;42.658;23.350;2023-05-18T15:57:58;48947.78;;;-146.31;96.27
2036;BME280;23642;42.658;23.350;2023-05-18T16:00:32;48857.06;;;-146.31;97.45
2036;BME280;23642;42.658;23.350;2023-05-18T16:02:59;48850.88;;;-146.31;97.49
2036;BME280;23642;42.658;23.350;2023-05-18T16:05:29;48836.47;;;-146.31;97.99
2036;BME280;23642;42.658;23.350;2023-05-18T16:10:48;48786.97;;;-146.31;98.02
2036;BME280;23642;42.658;23.350;2023-05-18T16:13:23;48718.97;;;-146.31;100.00
2036;BME280;23642;42.658;23.350;2023-05-18T16:16:07;48683.91;;;-146.31;100.00
2036;BME280;23642;42.658;23.350;2023-05-18T16:19:06;48733.38;;;-146.31;99.40
2036;BME280;23642;42.658;23.350;2023-05-18T16:25:00;48690.09;;;-146.31;99.19
2036;BME280;23642;42.658;23.350;2023-05-18T16:27:46;48758.13;;;-146.31;98.15
2036;BME280;23642;42.658;23.350;2023-05-18T16:30:16;48791.09;;;-146.31;99.08
2036;BME280;23642;42.658;23.350;2023-05-18T16:32:49;48741.63;;;-146.31;99.71
2036;BME280;23642;42.658;23.350;2023-05-18T16:35:19;48764.31;;;-146.31;99.55
2036;BME280;23642;42.658;23.350;2023-05-18T16:38:05;48780.78;;;-146.31;99.73
2036;BME280;23642;42.658;23.350;2023-05-18T16:40:47;48743.69;;;-146.31;99.75
2036;BME280;23642;42.658;23.350;2023-05-18T16:43:14;48704.53;;;-146.31;99.99
2036;BME280;23642;42.658;23.350;2023-05-18T16:45:44;48712.78;;;-146.31;100.00
2036;BME280;23642;42.658;23.350;2023-05-18T16:48:27;48716.91;;;-146.31;100.00
2036;BME280;23642;42.658;23.350;2023-05-18T16:50:57;48702.47;;;-146.31;99.83
2036;BME280;23642;42.658;23.350;2023-05-18T16:53:27;48725.13;;;-146.31;99.88
2036;BME280;23642;42.658;23.350;2023-05-18T16:56:36;48706.59;;;-146.31;99.79
2036;BME280;23642;42.658;23.350;2023-05-18T16:59:16;48737.50;;;-146.31;99.81
2036;BME280;23642;42.658;23.350;2023-05-18T17:01:55;48702.47;;;-146.31;99.94
2036;BME280;23642;42.658;23.350;2023-05-18T17:04:37;48706.59;;;-146.31;99.71
2036;BME280;23642;42.658;23.350;2023-05-18T17:07:07;48721.03;;;-146.31;99.41
2036;BME280;23642;42.658;23.350;2023-05-18T17:09:36;48698.34;;;-146.31;99.67
2036;BME280;23642;42.658;23.350;2023-05-18T17:12:15;48758.13;;;-146.31;99.61
2036;BME280;23642;42.658;23.350;2023-05-18T17:14:52;48714.84;;;-146.31;99.79
2036;BME280;23642;42.658;23.350;2023-05-18T17:17:32;48721.03;;;-146.31;99.69
2036;BME280;23642;42.658;23.350;2023-05-18T17:20:02;48710.72;;;-146.31;100.00
2036;BME280;23642;42.658;23.350;2023-05-18T17:22:41;48714.84;;;-146.31;100.00
2036;BME280;23642;42.658;23.350;2023-05-18T17:25:10;48704.53;;;-146.31;99.74
2036;BME280;23642;42.658;23.350;2023-05-18T17:28:13;48714.84;;;-146.31;99.54
2036;BME280;23642;42.658;23.350;2023-05-18T17:30:47;48721.03;;;-146.31;99.36
2036;BME280;23642;42.658;23.350;2023-05-18T17:33:24;48727.19;;;-146.31;99.77
2036;BME280;23642;42.658;23.350;2023-05-18T17:36:09;48737.50;;;-146.31;100.00
2036;BME280;23642;42.658;23.350;2023-05-18T17:38:49;48688.03;;;-146.31;100.00
2036;BME280;23642;42.658;23.350;2023-05-18T17:41:39;48599.41;;;-146.31;100.00
2036;BME280;23642;42.658;23.350;2023-05-18T17:45:31;48595.28;;;-146.31;100.00
2036;BME280;23642;42.658;23.350;2023-05-18T17:47:20;48428.31;;;-146.31;100.00
2036;BME280;23642;42.658;23.350;2023-05-18T17:49:56;48275.78;;;-146.31;100.00
2036;BME280;23642;42.658;23.350;2023-05-18T17:52:37;48263.44;;;-146.31;100.00
2036;BME280;23642;42.658;23.350;2023-05-18T17:55:06;48230.44;;;-146.31;100.00
2036;BME280;23642;42.658;23.350;2023-05-18T17:57:45;48232.50;;;-146.31;100.00